createdAt,value
2022-11-20T00:00:12.797Z,38.58
2022-11-20T00:03:00.358Z,36.42
2022-11-20T00:05:30.142Z,36.97
2022-11-20T00:07:59.989Z,38.15
2022-11-20T00:10:32.717Z,37.55
2022-11-20T00:13:01.261Z,41.80
2022-11-20T00:15:30.553Z,46.05
2022-11-20T00:18:00.654Z,45.85
2022-11-20T00:20:33.038Z,38.10
2022-11-20T00:23:01.548Z,35.80
2022-11-20T00:25:32.856Z,41.00
2022-11-20T00:30:45.990Z,38.20
2022-11-20T00:33:33.682Z,35.70
2022-11-20T00:36:14.541Z,37.92
2022-11-20T00:38:54.737Z,35.75
2022-11-20T00:41:23.998Z,42.05
2022-11-20T00:43:53.673Z,40.65
2022-11-20T00:46:26.758Z,35.28
2022-11-20T00:48:55.433Z,40.50
2022-11-20T00:51:25.627Z,37.63
2022-11-20T00:53:57.706Z,40.50
2022-11-20T00:56:33.553Z,41.72
2022-11-20T00:59:22.714Z,40.40
2022-11-20T01:02:06.635Z,43.25
2022-11-20T01:04:54.309Z,39.47
2022-11-20T01:07:41.858Z,32.60
2022-11-20T01:10:17.148Z,36.22
2022-11-20T01:13:25.743Z,36.90
2022-11-20T01:15:55.298Z,40.83
2022-11-20T01:18:26.746Z,33.83
2022-11-20T01:20:54.942Z,37.53
2022-11-20T01:23:25.779Z,34.65
2022-11-20T01:25:54.545Z,37.38
2022-11-20T01:28:23.382Z,35.80
2022-11-20T01:30:52.533Z,36.35
2022-11-20T01:33:29.125Z,38.42
2022-11-20T01:36:05.439Z,34.40
2022-11-20T01:38:48.017Z,38.53
2022-11-20T01:41:53.866Z,38.72
2022-11-20T01:44:23.819Z,40.47
2022-11-20T01:47:05.650Z,37.75
2022-11-20T01:49:39.338Z,36.55
2022-11-20T01:52:17.309Z,37.15
2022-11-20T01:54:56.916Z,46.70
2022-11-20T01:57:37.313Z,37.85
2022-11-20T02:00:07.944Z,37.17
2022-11-20T02:03:07.418Z,35.40
2022-11-20T02:05:48.519Z,32.58
2022-11-20T02:08:17.797Z,31.85
2022-11-20T02:10:49.857Z,35.75
2022-11-20T02:13:36.275Z,35.28
2022-11-20T02:16:06.178Z,37.65
2022-11-20T02:18:39.152Z,38.42
2022-11-20T02:21:11.037Z,34.88
2022-11-20T02:23:55.578Z,35.53
2022-11-20T02:26:25.151Z,32.42
2022-11-20T02:28:53.384Z,37.40
2022-11-20T02:31:27.211Z,32.42
2022-11-20T02:36:39.074Z,36.50
2022-11-20T02:39:18.001Z,38.60
2022-11-20T02:41:48.757Z,35.05
2022-11-20T02:44:16.969Z,36.05
2022-11-20T02:46:48.537Z,37.33
2022-11-20T02:49:17.967Z,35.53
2022-11-20T02:51:48.728Z,37.00
2022-11-20T02:54:32.232Z,35.80
2022-11-20T02:57:18.162Z,32.85
2022-11-20T03:00:00.581Z,33.78
2022-11-20T03:02:45.808Z,38.40
2022-11-20T03:05:35.835Z,34.45
2022-11-20T03:08:14.305Z,35.38
2022-11-20T03:11:04.780Z,30.08
2022-11-20T03:13:53.392Z,32.80
2022-11-20T03:16:42.162Z,36.30
2022-11-20T03:19:26.666Z,41.58
2022-11-20T03:22:11.133Z,39.28
2022-11-20T03:24:55.703Z,31.90
2022-11-20T03:27:24.497Z,37.85
2022-11-20T03:29:55.943Z,36.35
2022-11-20T03:32:27.102Z,28.67
2022-11-20T03:34:57.985Z,35.60
2022-11-20T03:37:27.330Z,29.95
2022-11-20T03:39:55.771Z,33.65
2022-11-20T03:42:43.415Z,35.03
2022-11-20T03:45:12.105Z,33.30
2022-11-20T03:47:42.869Z,34.80
2022-11-20T03:50:11.871Z,32.03
2022-11-20T03:52:42.340Z,31.52
2022-11-20T03:55:10.763Z,34.03
2022-11-20T03:57:42.053Z,35.22
2022-11-20T04:00:18.790Z,34.72
2022-11-20T04:03:07.131Z,33.95
2022-11-20T04:05:44.885Z,32.67
2022-11-20T04:08:27.312Z,36.05
2022-11-20T04:10:56.049Z,34.92
2022-11-20T04:13:26.618Z,36.58
2022-11-20T04:15:59.221Z,33.75
2022-11-20T04:18:30.593Z,36.05
2022-11-20T04:21:09.356Z,31.25
2022-11-20T04:23:54.677Z,41.33
2022-11-20T04:26:34.224Z,28.92
2022-11-20T04:29:13.432Z,35.10
2022-11-20T04:32:01.057Z,35.40
2022-11-20T04:34:36.156Z,34.38
2022-11-20T04:37:16.351Z,33.42
2022-11-20T04:40:02.952Z,35.03
2022-11-20T04:42:35.332Z,33.17
2022-11-20T04:45:04.356Z,38.10
2022-11-20T04:47:37.142Z,32.60
2022-11-20T04:50:05.766Z,38.08
2022-11-20T04:52:43.475Z,33.33
2022-11-20T04:55:14.574Z,34.63
2022-11-20T04:57:45.232Z,26.33
2022-11-20T05:00:14.654Z,37.60
2022-11-20T05:03:02.522Z,33.15
2022-11-20T05:05:35.480Z,35.85
2022-11-20T05:08:23.315Z,37.38
2022-11-20T05:11:11.872Z,34.05
2022-11-20T05:14:00.481Z,36.00
2022-11-20T05:16:36.324Z,31.88
2022-11-20T05:19:19.306Z,30.20
2022-11-20T05:21:56.895Z,37.95
2022-11-20T05:24:25.278Z,38.17
2022-11-20T05:26:55.070Z,35.25
2022-11-20T05:29:24.098Z,35.75
2022-11-20T05:31:57.236Z,26.67
2022-11-20T05:34:28.304Z,40.25
2022-11-20T05:36:58.814Z,36.28
2022-11-20T05:39:27.019Z,39.10
2022-11-20T05:42:11.558Z,36.30
2022-11-20T05:44:42.914Z,37.78
2022-11-20T05:47:13.498Z,33.22
2022-11-20T05:49:41.758Z,42.65
2022-11-20T05:52:10.023Z,37.08
2022-11-20T05:54:38.786Z,35.25
2022-11-20T05:57:07.134Z,34.63
2022-11-20T05:59:37.801Z,35.33
2022-11-20T06:02:06.005Z,42.13
2022-11-20T06:04:35.396Z,33.92
2022-11-20T06:07:03.828Z,36.97
2022-11-20T06:09:39.082Z,35.92
2022-11-20T06:12:12.976Z,35.83
2022-11-20T06:15:01.834Z,39.83
2022-11-20T06:17:49.395Z,31.67
2022-11-20T06:20:29.811Z,35.25
2022-11-20T06:22:58.586Z,31.67
2022-11-20T06:25:31.398Z,37.75
2022-11-20T06:28:01.240Z,35.90
2022-11-20T06:30:29.911Z,36.55
2022-11-20T06:33:17.507Z,35.65
2022-11-20T06:35:48.480Z,36.78
2022-11-20T06:38:19.165Z,32.80
2022-11-20T06:40:48.188Z,30.65
2022-11-20T06:43:16.612Z,34.35
2022-11-20T06:45:53.228Z,33.13
2022-11-20T06:50:53.089Z,38.97
2022-11-20T06:53:24.089Z,31.88
2022-11-20T06:55:53.497Z,38.40
2022-11-20T06:58:22.354Z,36.50
2022-11-20T07:01:09.199Z,36.10
2022-11-20T07:03:54.763Z,37.88
2022-11-20T07:06:42.169Z,39.28
2022-11-20T07:09:21.349Z,39.97
2022-11-20T07:11:53.198Z,40.40
2022-11-20T07:14:24.779Z,38.33
2022-11-20T07:16:53.267Z,38.70
2022-11-20T07:19:24.146Z,44.97
2022-11-20T07:21:54.130Z,41.58
2022-11-20T07:24:34.395Z,41.10
2022-11-20T07:27:08.501Z,45.25
2022-11-20T07:29:50.639Z,40.13
2022-11-20T07:32:23.456Z,44.38
2022-11-20T07:35:06.044Z,36.00
2022-11-20T07:37:53.654Z,40.42
2022-11-20T07:40:43.721Z,44.15
2022-11-20T07:43:23.499Z,45.83
2022-11-20T07:45:56.735Z,43.85
2022-11-20T07:48:25.875Z,44.63
2022-11-20T07:50:58.091Z,40.65
2022-11-20T07:53:26.333Z,34.05
2022-11-20T07:56:02.784Z,40.00
2022-11-20T07:58:41.799Z,37.42
2022-11-20T08:01:21.386Z,41.95
2022-11-20T08:03:59.304Z,38.85
2022-11-20T08:06:48.621Z,35.72
2022-11-20T08:09:27.926Z,37.83
2022-11-20T08:12:38.818Z,37.78
2022-11-20T08:15:24.814Z,44.25
2022-11-20T08:18:30.545Z,38.20
2022-11-20T08:21:09.966Z,40.78
2022-11-20T08:26:41.656Z,38.47
2022-11-20T08:29:12.744Z,43.92
2022-11-20T08:31:41.016Z,43.97
2022-11-20T08:34:10.282Z,45.15
2022-11-20T08:36:42.234Z,41.92
2022-11-20T08:39:13.807Z,43.47
2022-11-20T08:41:55.332Z,47.92
2022-11-20T08:44:23.744Z,44.95
2022-11-20T08:46:53.505Z,47.47
2022-11-20T08:49:24.915Z,44.45
2022-11-20T08:52:03.116Z,43.05
2022-11-20T08:54:40.426Z,52.15
2022-11-20T08:57:26.706Z,41.72
2022-11-20T09:00:17.041Z,41.42
2022-11-20T09:02:56.924Z,39.50
2022-11-20T09:05:25.878Z,44.35
2022-11-20T09:07:57.638Z,41.40
2022-11-20T09:10:26.138Z,44.42
2022-11-20T09:13:10.479Z,39.67
2022-11-20T09:16:01.630Z,41.00
2022-11-20T09:18:39.899Z,45.30
2022-11-20T09:21:20.894Z,48.60
2022-11-20T09:23:49.988Z,36.88
2022-11-20T09:26:19.173Z,39.45
2022-11-20T09:28:47.614Z,37.28
2022-11-20T09:31:21.777Z,42.70
2022-11-20T09:33:57.700Z,35.38
2022-11-20T09:36:37.255Z,40.72
2022-11-20T09:39:20.421Z,24.52
2022-11-20T09:42:01.069Z,36.17
2022-11-20T09:45:02.304Z,31.58
2022-11-20T09:47:56.294Z,34.08
2022-11-20T09:50:35.362Z,38.03
2022-11-20T09:53:13.118Z,29.15
2022-11-20T09:55:41.640Z,30.20
2022-11-20T09:58:14.240Z,34.45
2022-11-20T10:00:48.573Z,32.70
2022-11-20T10:03:39.329Z,36.13
2022-11-20T10:06:13.150Z,33.38
2022-11-20T10:08:47.673Z,36.72
2022-11-20T10:11:27.049Z,32.53
2022-11-20T10:14:18.306Z,39.83
2022-11-20T10:16:49.515Z,55.10
2022-11-20T10:19:33.335Z,24.35
2022-11-20T10:22:16.344Z,26.95
2022-11-20T10:25:09.825Z,30.90
2022-11-20T10:27:58.985Z,21.80
2022-11-20T10:30:28.056Z,27.38
2022-11-20T10:33:08.716Z,35.22
2022-11-20T10:35:43.737Z,25.08
2022-11-20T10:38:25.725Z,27.33
2022-11-20T10:41:20.641Z,32.78
2022-11-20T10:44:07.671Z,30.45
2022-11-20T10:46:47.946Z,27.52
2022-11-20T10:49:21.750Z,32.05
2022-11-20T10:51:50.047Z,29.33
2022-11-20T10:54:21.582Z,32.95
2022-11-20T10:56:53.624Z,31.55
2022-11-20T10:59:31.287Z,29.02
2022-11-20T11:02:03.432Z,32.85
2022-11-20T11:04:47.885Z,32.80
2022-11-20T11:07:16.060Z,35.30
2022-11-20T11:09:53.097Z,32.80
2022-11-20T11:12:24.204Z,43.88
2022-11-20T11:14:55.242Z,39.40
2022-11-20T11:17:47.824Z,33.28
2022-11-20T11:20:28.913Z,40.70
2022-11-20T11:23:28.735Z,43.42
2022-11-20T11:26:02.350Z,40.47
2022-11-20T11:31:12.957Z,35.88
2022-11-20T11:33:41.884Z,38.33
2022-11-20T11:36:22.080Z,36.17
2022-11-20T11:38:54.107Z,41.58
2022-11-20T11:41:36.734Z,34.03
2022-11-20T11:44:33.310Z,39.20
2022-11-20T11:47:12.241Z,36.40
2022-11-20T11:49:47.306Z,33.42
2022-11-20T11:52:19.057Z,38.40
2022-11-20T11:55:11.527Z,34.88
2022-11-20T11:58:21.020Z,36.35
2022-11-20T12:01:12.606Z,40.08
2022-11-20T12:03:42.793Z,32.70
2022-11-20T12:06:15.928Z,38.47
2022-11-20T12:08:51.356Z,40.88
2022-11-20T12:11:19.655Z,36.65
2022-11-20T12:13:55.907Z,48.45
2022-11-20T12:16:26.368Z,37.50
2022-11-20T12:22:11.036Z,41.05
2022-11-20T12:25:01.258Z,42.25
2022-11-20T12:27:45.397Z,40.42
2022-11-20T12:30:16.122Z,38.47
2022-11-20T12:33:30.231Z,42.65
2022-11-20T12:36:16.612Z,43.83
2022-11-20T12:38:59.094Z,38.65
2022-11-20T12:42:03.533Z,42.15
2022-11-20T12:47:31.082Z,36.58
2022-11-20T12:50:18.191Z,36.60
2022-11-20T12:53:13.476Z,33.45
2022-11-20T12:55:48.057Z,36.58
2022-11-20T12:58:38.758Z,39.90
2022-11-20T13:01:09.467Z,40.30
2022-11-20T13:03:44.484Z,40.80
2022-11-20T13:06:15.620Z,37.83
2022-11-20T13:08:50.564Z,64.28
2022-11-20T13:11:27.597Z,39.80
2022-11-20T13:14:15.265Z,46.20
2022-11-20T13:17:07.416Z,54.28
2022-11-20T13:19:35.897Z,41.08
2022-11-20T13:22:07.398Z,38.92
2022-11-20T13:24:52.476Z,42.00
2022-11-20T13:27:26.332Z,41.45
2022-11-20T13:30:05.342Z,41.28
2022-11-20T13:32:53.959Z,47.95
2022-11-20T13:35:30.340Z,43.00
2022-11-20T13:38:16.295Z,49.38
2022-11-20T13:40:55.791Z,46.92
2022-11-20T13:43:41.873Z,51.17
2022-11-20T13:46:13.165Z,48.17
2022-11-20T13:48:56.825Z,44.08
2022-11-20T13:51:31.535Z,48.70
2022-11-20T13:54:09.309Z,47.65
2022-11-20T13:56:58.962Z,48.33
2022-11-20T14:00:05.589Z,42.17
2022-11-20T14:02:46.005Z,52.83
2022-11-20T14:05:23.506Z,51.97
2022-11-20T14:07:52.922Z,49.50
2022-11-20T14:10:31.397Z,47.60
2022-11-20T14:13:11.547Z,47.38
2022-11-20T14:15:45.242Z,43.80
2022-11-20T14:18:15.046Z,59.05
2022-11-20T14:20:44.694Z,51.00
2022-11-20T14:23:29.512Z,43.72
2022-11-20T14:26:08.410Z,53.63
2022-11-20T14:28:50.900Z,53.10
2022-11-20T14:31:25.899Z,57.30
2022-11-20T14:33:56.697Z,60.75
2022-11-20T14:36:35.864Z,55.05
2022-11-20T14:39:24.415Z,52.65
2022-11-20T14:42:17.574Z,53.60
2022-11-20T14:45:00.381Z,67.18
2022-11-20T14:47:41.508Z,63.22
2022-11-20T14:50:25.418Z,67.63
2022-11-20T14:53:13.194Z,75.45
2022-11-20T14:56:02.247Z,70.93
2022-11-20T14:58:35.639Z,65.32
2022-11-20T15:01:14.090Z,69.50
2022-11-20T15:04:01.396Z,59.40
2022-11-20T15:06:53.413Z,62.22
2022-11-20T15:09:31.306Z,58.53
2022-11-20T15:12:19.556Z,54.80
2022-11-20T15:15:07.147Z,58.03
2022-11-20T15:17:53.804Z,64.22
2022-11-20T15:20:26.138Z,57.65
2022-11-20T15:22:56.771Z,57.47
2022-11-20T15:25:27.431Z,57.53
2022-11-20T15:27:59.151Z,53.08
2022-11-20T15:30:30.573Z,53.28
2022-11-20T15:33:19.734Z,59.10
2022-11-20T15:35:48.266Z,64.25
2022-11-20T15:38:17.365Z,63.58
2022-11-20T15:40:51.371Z,60.00
2022-11-20T15:43:24.332Z,52.92
2022-11-20T15:45:52.638Z,58.15
2022-11-20T15:48:47.644Z,55.13
2022-11-20T15:51:35.728Z,64.25
2022-11-20T15:54:24.397Z,54.70
2022-11-20T15:57:13.943Z,55.63
2022-11-20T15:59:57.269Z,45.97
2022-11-20T16:02:25.818Z,46.13
2022-11-20T16:04:55.308Z,47.85
2022-11-20T16:07:27.265Z,58.15
2022-11-20T16:10:12.281Z,59.10
2022-11-20T16:13:17.520Z,51.80
2022-11-20T16:16:07.163Z,53.38
2022-11-20T16:18:57.330Z,50.22
2022-11-20T16:21:28.721Z,50.70
2022-11-20T16:23:56.942Z,42.13
2022-11-20T16:26:25.515Z,44.97
2022-11-20T16:28:55.151Z,46.33
2022-11-20T16:31:23.936Z,52.58
2022-11-20T16:34:07.155Z,52.10
2022-11-20T16:36:52.776Z,44.80
2022-11-20T16:39:42.825Z,51.97
2022-11-20T16:42:34.883Z,58.97
2022-11-20T16:45:26.948Z,48.10
2022-11-20T16:48:02.812Z,53.15
2022-11-20T16:50:34.068Z,58.60
2022-11-20T16:53:04.689Z,50.10
2022-11-20T16:55:36.473Z,47.90
2022-11-20T16:58:26.143Z,53.42
2022-11-20T17:01:14.329Z,57.28
2022-11-20T17:04:00.789Z,48.17
2022-11-20T17:06:31.799Z,50.47
2022-11-20T17:09:00.671Z,49.83
2022-11-20T17:11:33.398Z,49.63
2022-11-20T17:14:08.323Z,37.17
2022-11-20T17:16:56.007Z,49.33
2022-11-20T17:19:43.507Z,49.72
2022-11-20T17:22:32.298Z,42.40
2022-11-20T17:25:19.894Z,39.97
2022-11-20T17:30:22.023Z,37.60
2022-11-20T17:33:11.701Z,41.72
2022-11-20T17:35:41.438Z,35.50
2022-11-20T17:38:24.902Z,33.30
2022-11-20T17:41:10.705Z,30.15
2022-11-20T17:43:59.102Z,23.67
2022-11-20T17:46:46.793Z,32.08
2022-11-20T17:49:17.856Z,28.13
2022-11-20T17:52:06.180Z,25.33
2022-11-20T17:54:55.685Z,19.73
2022-11-20T17:57:53.111Z,20.88
2022-11-20T18:00:22.463Z,21.10
2022-11-20T18:03:10.292Z,18.15
2022-11-20T18:05:41.242Z,17.27
2022-11-20T18:08:10.297Z,14.70
2022-11-20T18:10:52.121Z,17.60
2022-11-20T18:13:50.755Z,12.57
2022-11-20T18:16:27.370Z,15.05
2022-11-20T18:19:15.521Z,18.23
2022-11-20T18:21:45.323Z,25.63
2022-11-20T18:24:14.387Z,18.45
2022-11-20T18:26:44.742Z,17.23
2022-11-20T18:29:14.835Z,15.90
2022-11-20T18:31:43.216Z,18.90
2022-11-20T18:34:14.124Z,10.32
2022-11-20T18:36:43.332Z,6.15
2022-11-20T18:39:13.055Z,10.98
2022-11-20T18:42:02.103Z,15.15
2022-11-20T18:44:50.765Z,13.55
2022-11-20T18:47:21.198Z,13.88
2022-11-20T18:49:53.614Z,14.13
2022-11-20T18:52:28.290Z,19.05
2022-11-20T18:55:15.924Z,20.13
2022-11-20T18:58:03.512Z,15.23
2022-11-20T19:00:51.056Z,21.00
2022-11-20T19:03:39.441Z,16.27
2022-11-20T19:06:27.274Z,25.08
2022-11-20T19:08:58.388Z,24.48
2022-11-20T19:11:27.377Z,24.33
2022-11-20T19:13:56.060Z,30.05
2022-11-20T19:16:29.674Z,22.25
2022-11-20T19:19:03.206Z,29.17
2022-11-20T19:21:33.836Z,27.70
2022-11-20T19:24:03.927Z,29.90
2022-11-20T19:26:51.479Z,19.10
2022-11-20T19:29:37.276Z,23.80
2022-11-20T19:32:24.950Z,34.58
2022-11-20T19:35:11.806Z,21.52
2022-11-20T19:38:05.225Z,26.33
2022-11-20T19:40:53.259Z,28.75
2022-11-20T19:43:36.334Z,18.73
2022-11-20T19:46:21.091Z,28.20
2022-11-20T19:48:50.999Z,23.70
2022-11-20T19:51:21.437Z,23.20
2022-11-20T19:53:49.723Z,27.25
2022-11-20T19:56:19.535Z,27.05
2022-11-20T19:58:48.004Z,36.67
2022-11-20T20:01:21.216Z,42.92
2022-11-20T20:03:52.834Z,30.92
2022-11-20T20:06:25.463Z,63.78
2022-11-20T20:08:58.388Z,30.75
2022-11-20T20:11:47.016Z,30.95
2022-11-20T20:14:34.752Z,36.50
2022-11-20T20:17:24.883Z,40.05
2022-11-20T20:20:12.716Z,46.28
2022-11-20T20:23:07.064Z,47.40
2022-11-20T20:25:53.941Z,51.85
2022-11-20T20:28:41.942Z,44.70
2022-11-20T20:31:31.894Z,57.22
2022-11-20T20:34:19.471Z,46.20
2022-11-20T20:37:09.172Z,56.70
2022-11-20T20:39:56.797Z,52.65
2022-11-20T20:42:44.548Z,43.40
2022-11-20T20:45:22.282Z,42.67
2022-11-20T20:48:12.371Z,42.40
2022-11-20T20:51:01.183Z,40.55
2022-11-20T20:53:48.831Z,46.10
2022-11-20T20:56:20.166Z,48.38
2022-11-20T20:58:51.492Z,47.83
2022-11-20T21:01:20.764Z,52.42
2022-11-20T21:03:53.106Z,60.42
2022-11-20T21:06:22.206Z,58.38
2022-11-20T21:08:53.856Z,58.58
2022-11-20T21:11:22.400Z,51.10
2022-11-20T21:13:50.975Z,55.47
2022-11-20T21:16:20.524Z,51.10
2022-11-20T21:18:50.964Z,56.15
2022-11-20T21:21:37.009Z,59.30
2022-11-20T21:24:05.967Z,62.25
2022-11-20T21:26:37.065Z,61.92
2022-11-20T21:29:20.898Z,63.28
2022-11-20T21:31:58.686Z,65.93
2022-11-20T21:34:46.351Z,60.38
2022-11-20T21:37:38.336Z,67.60
2022-11-20T21:40:11.954Z,70.32
2022-11-20T21:42:45.005Z,78.85
2022-11-20T21:45:15.200Z,73.85
2022-11-20T21:47:57.147Z,73.95
2022-11-20T21:53:22.574Z,76.90
2022-11-20T21:56:01.072Z,74.50
2022-11-20T21:58:40.606Z,78.75
2022-11-20T22:01:21.235Z,76.43
2022-11-20T22:03:50.666Z,81.90
2022-11-20T22:06:19.549Z,81.60
2022-11-20T22:08:48.706Z,75.65
2022-11-20T22:11:36.299Z,88.10
2022-11-20T22:14:25.805Z,87.53
2022-11-20T22:16:56.540Z,91.70
2022-11-20T22:19:35.067Z,92.07
2022-11-20T22:22:06.079Z,84.50
2022-11-20T22:24:34.758Z,98.10
2022-11-20T22:27:03.185Z,88.20
2022-11-20T22:29:33.088Z,97.25
2022-11-20T22:32:04.699Z,85.88
2022-11-20T22:34:49.437Z,87.38
2022-11-20T22:37:32.720Z,85.43
2022-11-20T22:40:20.622Z,89.88
2022-11-20T22:43:08.159Z,81.13
2022-11-20T22:45:55.805Z,71.75
2022-11-20T22:48:45.188Z,74.90
2022-11-20T22:51:26.909Z,72.63
2022-11-20T22:53:57.502Z,76.45
2022-11-20T22:56:41.702Z,73.43
2022-11-20T22:59:24.695Z,62.92
2022-11-20T23:02:09.372Z,62.35
2022-11-20T23:04:56.926Z,63.60
2022-11-20T23:07:44.848Z,70.72
2022-11-20T23:10:23.528Z,72.03
2022-11-20T23:13:11.176Z,68.88
2022-11-20T23:16:06.249Z,78.20
2022-11-20T23:18:58.208Z,76.53
2022-11-20T23:21:43.586Z,67.40
2022-11-20T23:24:14.586Z,70.63
2022-11-20T23:27:01.220Z,72.93
2022-11-20T23:29:30.472Z,81.18
2022-11-20T23:31:59.060Z,90.63
2022-11-20T23:34:31.042Z,83.93
2022-11-20T23:37:01.121Z,71.80
2022-11-20T23:39:30.157Z,80.88
2022-11-20T23:41:59.817Z,87.75
2022-11-20T23:44:47.532Z,92.05
2022-11-20T23:47:25.460Z,97.40
2022-11-20T23:50:10.552Z,106.38
2022-11-20T23:53:00.805Z,94.22
2022-11-20T23:55:51.911Z,91.47
2022-11-20T23:58:35.005Z,104.25
